createdAt,value
2019-01-18T00:00:59.030Z,9.57
2019-01-18T00:03:43.714Z,11.00
2019-01-18T00:06:29.044Z,11.77
2019-01-18T00:09:13.830Z,12.47
2019-01-18T00:11:58.465Z,11.73
2019-01-18T00:14:43.173Z,9.27
2019-01-18T00:17:28.144Z,9.13
2019-01-18T00:20:14.215Z,8.33
2019-01-18T00:22:59.340Z,8.73
2019-01-18T00:25:44.581Z,6.97
2019-01-18T00:28:29.568Z,7.97
2019-01-18T00:31:15.101Z,10.17
2019-01-18T00:33:59.969Z,11.67
2019-01-18T00:36:44.979Z,9.50
2019-01-18T00:39:29.529Z,10.00
2019-01-18T00:42:14.073Z,10.70
2019-01-18T00:44:58.784Z,8.60
2019-01-18T00:47:43.814Z,11.87
2019-01-18T00:50:28.661Z,7.87
2019-01-18T00:53:13.805Z,7.97
2019-01-18T00:55:58.423Z,8.57
2019-01-18T00:58:43.502Z,6.60
2019-01-18T01:01:28.430Z,8.97
2019-01-18T01:04:13.505Z,10.83
2019-01-18T01:06:58.724Z,13.30
2019-01-18T01:09:43.863Z,8.83
2019-01-18T01:12:28.273Z,8.57
2019-01-18T01:15:16.854Z,7.73
2019-01-18T01:18:01.470Z,8.50
2019-01-18T01:20:46.025Z,7.87
2019-01-18T01:23:30.750Z,7.57
2019-01-18T01:26:15.648Z,8.30
2019-01-18T01:29:00.186Z,8.63
2019-01-18T01:31:44.700Z,7.93
2019-01-18T01:34:29.442Z,8.23
2019-01-18T01:37:14.564Z,8.80
2019-01-18T01:39:59.597Z,9.53
2019-01-18T01:42:44.206Z,7.57
2019-01-18T01:45:29.155Z,8.43
2019-01-18T01:48:13.818Z,8.77
2019-01-18T01:50:58.658Z,6.90
2019-01-18T01:53:43.424Z,7.70
2019-01-18T01:56:28.354Z,6.10
2019-01-18T01:59:13.260Z,6.67
2019-01-18T02:01:58.274Z,6.17
2019-01-18T02:04:42.699Z,6.67
2019-01-18T02:07:27.347Z,7.50
2019-01-18T02:10:14.275Z,8.80
2019-01-18T02:12:58.948Z,8.03
2019-01-18T02:15:43.434Z,7.77
2019-01-18T02:18:28.165Z,8.20
2019-01-18T02:21:12.701Z,7.83
2019-01-18T02:23:57.362Z,8.27
2019-01-18T02:26:42.084Z,7.70
2019-01-18T02:29:27.026Z,9.17
2019-01-18T02:32:11.709Z,9.70
2019-01-18T02:34:56.778Z,9.67
2019-01-18T02:37:41.668Z,9.17
2019-01-18T02:40:26.529Z,7.50
2019-01-18T02:43:11.515Z,8.93
2019-01-18T02:45:56.260Z,9.27
2019-01-18T02:48:41.072Z,8.97
2019-01-18T02:51:25.533Z,9.57
2019-01-18T02:54:10.114Z,8.23
2019-01-18T02:56:54.712Z,6.73
2019-01-18T02:59:39.597Z,7.80
2019-01-18T03:02:24.264Z,11.47
2019-01-18T03:05:11.069Z,8.83
2019-01-18T03:07:55.897Z,10.03
2019-01-18T03:10:40.774Z,8.97
2019-01-18T03:13:25.476Z,7.70
2019-01-18T03:16:09.843Z,10.03
2019-01-18T03:18:54.579Z,7.40
2019-01-18T03:21:39.759Z,12.37
2019-01-18T03:24:24.658Z,10.17
2019-01-18T03:27:09.253Z,12.70
2019-01-18T03:29:54.059Z,10.43
2019-01-18T03:32:38.900Z,9.30
2019-01-18T03:35:23.835Z,8.10
2019-01-18T03:38:09.041Z,10.73
2019-01-18T03:40:53.417Z,10.90
2019-01-18T03:43:38.394Z,9.80
2019-01-18T03:46:22.939Z,10.33
2019-01-18T03:49:07.535Z,12.33
2019-01-18T03:51:52.015Z,10.57
2019-01-18T03:54:36.562Z,10.77
2019-01-18T03:57:21.152Z,12.67
2019-01-18T04:00:12.642Z,12.53
2019-01-18T04:02:57.356Z,11.90
2019-01-18T04:05:42.338Z,11.93
2019-01-18T04:08:27.304Z,11.80
2019-01-18T04:11:11.845Z,11.30
2019-01-18T04:13:56.318Z,9.83
2019-01-18T04:16:41.191Z,14.40
2019-01-18T04:19:26.114Z,12.67
2019-01-18T04:22:11.309Z,11.37
2019-01-18T04:24:55.767Z,11.90
2019-01-18T04:27:40.493Z,13.87
2019-01-18T04:30:32.977Z,11.30
2019-01-18T04:33:11.883Z,11.77
2019-01-18T04:35:56.664Z,10.73
2019-01-18T04:38:41.540Z,14.60
2019-01-18T04:41:26.340Z,11.93
2019-01-18T04:44:11.249Z,15.23
2019-01-18T04:46:55.992Z,11.67
2019-01-18T04:49:40.923Z,12.17
2019-01-18T04:52:26.097Z,13.13
2019-01-18T04:55:11.977Z,14.50
2019-01-18T04:57:56.820Z,12.93
2019-01-18T05:00:42.120Z,13.83
2019-01-18T05:03:27.126Z,14.70
2019-01-18T05:06:11.657Z,13.67
2019-01-18T05:08:56.618Z,11.60
2019-01-18T05:11:41.314Z,13.67
2019-01-18T05:14:26.112Z,12.73
2019-01-18T05:17:10.859Z,12.43
2019-01-18T05:19:55.753Z,15.03
2019-01-18T05:22:40.362Z,18.60
2019-01-18T05:25:25.367Z,25.43
2019-01-18T05:28:09.877Z,26.13
2019-01-18T05:30:54.522Z,26.77
2019-01-18T05:33:39.117Z,19.07
2019-01-18T05:36:24.049Z,18.40
2019-01-18T05:39:08.882Z,21.97
2019-01-18T05:41:53.794Z,16.87
2019-01-18T05:44:38.354Z,20.20
2019-01-18T05:47:23.092Z,16.83
2019-01-18T05:50:18.758Z,16.73
2019-01-18T05:53:04.584Z,14.90
2019-01-18T05:55:49.329Z,18.30
2019-01-18T05:58:34.387Z,19.27
2019-01-18T06:01:19.497Z,19.03
2019-01-18T06:04:04.562Z,16.77
2019-01-18T06:06:49.689Z,19.43
2019-01-18T06:09:34.155Z,18.13
2019-01-18T06:12:18.898Z,18.73
2019-01-18T06:15:06.068Z,22.27
2019-01-18T06:17:51.064Z,15.57
2019-01-18T06:20:36.099Z,19.70
2019-01-18T06:23:20.504Z,18.03
2019-01-18T06:26:05.138Z,16.63
2019-01-18T06:28:49.822Z,19.07
2019-01-18T06:31:34.759Z,16.83
2019-01-18T06:34:19.301Z,16.27
2019-01-18T06:37:04.154Z,17.97
2019-01-18T06:39:49.086Z,14.60
2019-01-18T06:42:34.238Z,17.97
2019-01-18T06:45:28.212Z,21.60
2019-01-18T06:48:14.927Z,19.67
2019-01-18T06:50:59.595Z,19.07
2019-01-18T06:53:44.203Z,16.57
2019-01-18T06:56:29.322Z,21.00
2019-01-18T06:59:14.074Z,18.17
2019-01-18T07:01:59.110Z,17.23
2019-01-18T07:04:43.503Z,22.70
2019-01-18T07:07:27.998Z,20.50
2019-01-18T07:10:20.723Z,17.20
2019-01-18T07:13:02.319Z,17.17
2019-01-18T07:15:47.282Z,20.60
2019-01-18T07:18:31.849Z,18.23
2019-01-18T07:21:16.503Z,19.80
2019-01-18T07:24:01.332Z,19.43
2019-01-18T07:26:46.112Z,17.63
2019-01-18T07:29:31.303Z,20.37
2019-01-18T07:32:16.794Z,18.47
2019-01-18T07:35:01.741Z,18.33
2019-01-18T07:37:46.391Z,19.83
2019-01-18T07:40:31.312Z,21.33
2019-01-18T07:43:16.287Z,23.07
2019-01-18T07:46:00.913Z,18.97
2019-01-18T07:48:45.456Z,24.23
2019-01-18T07:51:30.629Z,25.30
2019-01-18T07:54:15.562Z,25.30
2019-01-18T07:57:00.341Z,23.63
2019-01-18T07:59:45.196Z,22.03
2019-01-18T08:02:29.823Z,22.10
2019-01-18T08:05:14.996Z,22.03
2019-01-18T08:08:00.174Z,23.03
2019-01-18T08:10:44.918Z,22.57
2019-01-18T08:13:29.499Z,23.53
2019-01-18T08:16:14.603Z,23.13
2019-01-18T08:18:59.257Z,22.23
2019-01-18T08:21:44.044Z,24.00
2019-01-18T08:24:28.689Z,23.40
2019-01-18T08:27:13.352Z,24.40
2019-01-18T08:29:57.948Z,24.77
2019-01-18T08:32:42.624Z,30.40
2019-01-18T08:35:27.547Z,23.37
2019-01-18T08:38:12.458Z,27.17
2019-01-18T08:40:57.035Z,31.93
2019-01-18T08:43:41.670Z,34.17
2019-01-18T08:46:26.398Z,32.20
2019-01-18T08:49:11.444Z,29.03
2019-01-18T08:51:56.119Z,34.20
2019-01-18T08:54:40.803Z,32.57
2019-01-18T08:57:25.385Z,30.90
2019-01-18T09:00:16.087Z,29.43
2019-01-18T09:03:01.028Z,25.20
2019-01-18T09:05:45.742Z,28.40
2019-01-18T09:08:30.668Z,29.13
2019-01-18T09:11:15.213Z,27.37
2019-01-18T09:14:00.055Z,29.40
2019-01-18T09:16:44.673Z,28.23
2019-01-18T09:19:29.127Z,25.07
2019-01-18T09:22:13.557Z,27.13
2019-01-18T09:24:58.429Z,28.83
2019-01-18T09:27:43.438Z,28.73
2019-01-18T09:30:31.643Z,26.77
2019-01-18T09:33:16.607Z,26.53
2019-01-18T09:36:01.720Z,26.50
2019-01-18T09:38:46.698Z,23.20
2019-01-18T09:41:31.029Z,28.13
2019-01-18T09:44:15.702Z,26.87
2019-01-18T09:47:00.258Z,25.47
2019-01-18T09:49:45.563Z,24.67
2019-01-18T09:52:30.464Z,25.87
2019-01-18T09:55:15.387Z,26.17
2019-01-18T09:58:00.396Z,26.53
2019-01-18T10:00:45.291Z,23.23
2019-01-18T10:03:29.814Z,26.43
2019-01-18T10:06:14.414Z,23.50
2019-01-18T10:08:58.949Z,23.43
2019-01-18T10:11:43.534Z,22.03
2019-01-18T10:14:28.192Z,23.97
2019-01-18T10:17:12.699Z,26.03
2019-01-18T10:19:57.416Z,22.30
2019-01-18T10:22:43.344Z,23.47
2019-01-18T10:25:28.150Z,22.50
2019-01-18T10:28:12.822Z,24.20
2019-01-18T10:30:57.662Z,19.13
2019-01-18T10:33:42.286Z,18.30
2019-01-18T10:36:26.913Z,19.73
2019-01-18T10:39:11.445Z,22.23
2019-01-18T10:41:56.099Z,20.93
2019-01-18T10:44:40.847Z,19.47
2019-01-18T10:47:25.638Z,22.00
2019-01-18T10:50:13.226Z,18.90
2019-01-18T10:52:58.209Z,18.43
2019-01-18T10:55:42.923Z,20.37
2019-01-18T10:58:27.693Z,17.40
2019-01-18T11:01:12.749Z,25.77
2019-01-18T11:03:57.819Z,19.50
2019-01-18T11:06:42.943Z,21.00
2019-01-18T11:09:27.425Z,21.67
2019-01-18T11:12:12.438Z,20.37
2019-01-18T11:14:57.059Z,22.17
2019-01-18T11:17:42.064Z,16.93
2019-01-18T11:20:42.265Z,19.87
2019-01-18T11:23:27.199Z,19.90
2019-01-18T11:26:11.731Z,18.27
2019-01-18T11:28:56.829Z,17.10
2019-01-18T11:31:41.945Z,17.43
2019-01-18T11:34:27.001Z,17.70
2019-01-18T11:37:12.085Z,18.53
2019-01-18T11:39:56.962Z,18.10
2019-01-18T11:42:41.543Z,17.73
2019-01-18T11:45:26.539Z,16.87
2019-01-18T11:48:11.157Z,19.40
2019-01-18T11:50:56.257Z,21.10
2019-01-18T11:53:41.518Z,20.63
2019-01-18T11:56:26.141Z,23.60
2019-01-18T11:59:11.142Z,22.50
2019-01-18T12:01:55.924Z,18.83
2019-01-18T12:04:40.467Z,19.67
2019-01-18T12:07:25.062Z,17.67
2019-01-18T12:10:12.718Z,15.57
2019-01-18T12:12:57.569Z,17.60
2019-01-18T12:15:42.412Z,17.17
2019-01-18T12:18:27.106Z,17.13
2019-01-18T12:21:12.328Z,17.10
2019-01-18T12:23:57.339Z,17.73
2019-01-18T12:26:42.284Z,14.93
2019-01-18T12:29:27.271Z,14.37
2019-01-18T12:32:12.418Z,16.17
2019-01-18T12:34:57.401Z,13.97
2019-01-18T12:37:42.982Z,15.03
2019-01-18T12:40:27.797Z,16.60
2019-01-18T12:43:13.063Z,11.63
2019-01-18T12:45:58.219Z,13.10
2019-01-18T12:48:43.163Z,15.53
2019-01-18T12:51:28.254Z,14.37
2019-01-18T12:54:13.312Z,12.10
2019-01-18T12:56:58.365Z,14.37
2019-01-18T12:59:43.081Z,11.83
2019-01-18T13:02:27.894Z,13.80
2019-01-18T13:05:15.512Z,11.83
2019-01-18T13:08:00.585Z,11.80
2019-01-18T13:10:45.743Z,12.10
2019-01-18T13:13:30.932Z,11.90
2019-01-18T13:16:18.233Z,11.40
2019-01-18T13:19:03.041Z,8.97
2019-01-18T13:21:47.972Z,10.00
2019-01-18T13:24:32.744Z,11.07
2019-01-18T13:27:17.706Z,9.90
2019-01-18T13:30:06.142Z,11.27
2019-01-18T13:32:50.781Z,8.80
2019-01-18T13:35:35.886Z,8.57
2019-01-18T13:38:20.498Z,7.93
2019-01-18T13:41:04.942Z,8.73
2019-01-18T13:43:50.254Z,9.33
2019-01-18T13:46:35.311Z,7.67
2019-01-18T13:49:20.553Z,8.80
2019-01-18T13:52:05.358Z,10.30
2019-01-18T13:54:50.114Z,8.33
2019-01-18T13:57:34.716Z,8.17
2019-01-18T14:00:19.699Z,6.90
2019-01-18T14:03:04.636Z,7.73
2019-01-18T14:05:49.360Z,6.63
2019-01-18T14:08:34.373Z,7.03
2019-01-18T14:11:19.263Z,6.77
2019-01-18T14:14:04.461Z,6.37
2019-01-18T14:16:49.159Z,7.70
2019-01-18T14:19:34.272Z,5.83
2019-01-18T14:22:19.232Z,10.50
2019-01-18T14:25:05.963Z,7.60
2019-01-18T14:27:51.092Z,8.43
2019-01-18T14:30:36.172Z,7.57
2019-01-18T14:33:21.364Z,5.67
2019-01-18T14:36:06.443Z,6.07
2019-01-18T14:38:51.218Z,7.53
2019-01-18T14:41:35.730Z,8.70
2019-01-18T14:44:20.772Z,6.07
2019-01-18T14:47:05.463Z,8.80
2019-01-18T14:49:50.426Z,7.80
2019-01-18T14:52:35.126Z,5.23
2019-01-18T14:55:20.323Z,4.90
2019-01-18T14:58:07.080Z,5.33
2019-01-18T15:00:52.098Z,4.63
2019-01-18T15:03:37.087Z,5.43
2019-01-18T15:06:21.902Z,7.87
2019-01-18T15:09:09.780Z,8.23
2019-01-18T15:11:54.323Z,5.87
2019-01-18T15:14:39.285Z,7.17
2019-01-18T15:17:24.379Z,6.30
2019-01-18T15:20:15.059Z,5.40
2019-01-18T15:22:59.840Z,5.37
2019-01-18T15:25:44.728Z,5.90
2019-01-18T15:28:29.320Z,5.47
2019-01-18T15:31:14.286Z,4.57
2019-01-18T15:33:59.529Z,6.47
2019-01-18T15:36:44.343Z,8.17
2019-01-18T15:39:29.150Z,6.80
2019-01-18T15:42:14.072Z,7.97
2019-01-18T15:44:59.376Z,7.07
2019-01-18T15:47:44.257Z,6.00
2019-01-18T15:50:31.297Z,5.83
2019-01-18T15:53:16.395Z,7.27
2019-01-18T15:56:01.404Z,13.17
2019-01-18T15:58:46.003Z,16.13
2019-01-18T16:01:30.944Z,14.73
2019-01-18T16:04:15.650Z,12.07
2019-01-18T16:07:00.507Z,10.07
2019-01-18T16:09:45.548Z,10.30
2019-01-18T16:12:30.843Z,10.33
2019-01-18T16:15:28.431Z,12.97
2019-01-18T16:18:16.963Z,11.53
2019-01-18T16:21:02.667Z,9.27
2019-01-18T16:23:47.607Z,12.90
2019-01-18T16:26:32.841Z,11.33
2019-01-18T16:29:17.704Z,12.90
2019-01-18T16:32:03.029Z,13.10
2019-01-18T16:34:47.918Z,11.57
2019-01-18T16:37:33.073Z,10.37
2019-01-18T16:40:29.759Z,10.47
2019-01-18T16:43:24.503Z,13.13
2019-01-18T16:46:09.580Z,10.67
2019-01-18T16:48:54.625Z,10.23
2019-01-18T16:51:39.671Z,15.40
2019-01-18T16:54:24.560Z,11.57
2019-01-18T16:57:10.121Z,8.93
2019-01-18T16:59:55.123Z,13.00
2019-01-18T17:02:40.124Z,12.80
2019-01-18T17:05:25.130Z,13.93
2019-01-18T17:08:10.239Z,13.87
2019-01-18T17:10:55.375Z,14.30
2019-01-18T17:13:40.602Z,17.00
2019-01-18T17:16:25.662Z,14.70
2019-01-18T17:19:11.111Z,16.03
2019-01-18T17:21:55.831Z,19.20
2019-01-18T17:24:40.912Z,17.90
2019-01-18T17:27:25.950Z,19.30
2019-01-18T17:30:13.701Z,19.57
2019-01-18T17:32:58.662Z,19.03
2019-01-18T17:35:55.833Z,17.23
2019-01-18T17:39:03.135Z,23.23
2019-01-18T17:42:03.818Z,20.57
2019-01-18T17:45:01.475Z,26.93
2019-01-18T17:48:05.055Z,25.77
2019-01-18T17:51:26.905Z,24.60
2019-01-18T17:54:21.531Z,25.00
2019-01-18T17:57:37.529Z,25.83
2019-01-18T18:00:35.363Z,26.53
2019-01-18T18:03:36.658Z,27.60
2019-01-18T18:06:34.763Z,28.33
2019-01-18T18:09:23.116Z,31.77
2019-01-18T18:12:11.698Z,27.97
2019-01-18T18:15:20.096Z,31.23
2019-01-18T18:18:25.467Z,29.40
2019-01-18T18:21:34.919Z,22.13
2019-01-18T18:24:29.421Z,25.20
2019-01-18T18:27:34.587Z,25.43
2019-01-18T18:30:23.547Z,38.07
2019-01-18T18:33:28.923Z,30.17
2019-01-18T18:36:20.491Z,28.40
2019-01-18T18:39:11.681Z,25.67
2019-01-18T18:42:12.049Z,27.03
2019-01-18T18:45:32.321Z,26.77
2019-01-18T18:48:40.367Z,27.77
2019-01-18T18:52:02.507Z,24.70
2019-01-18T18:54:57.137Z,27.03
2019-01-18T18:58:04.182Z,26.67
2019-01-18T19:00:59.014Z,28.60
2019-01-18T19:04:13.423Z,26.50
2019-01-18T19:07:18.802Z,24.10
2019-01-18T19:10:39.390Z,28.70
2019-01-18T19:13:28.027Z,25.17
2019-01-18T19:16:34.729Z,30.03
2019-01-18T19:19:35.354Z,27.67
2019-01-18T19:22:33.412Z,23.67
2019-01-18T19:25:31.328Z,24.67
2019-01-18T19:28:42.573Z,26.23
2019-01-18T19:31:46.326Z,23.80
2019-01-18T19:34:47.090Z,21.67
2019-01-18T19:37:44.454Z,22.97
2019-01-18T19:40:33.137Z,20.57
2019-01-18T19:43:41.789Z,22.77
2019-01-18T19:46:41.963Z,25.20
2019-01-18T19:49:48.785Z,20.97
2019-01-18T19:52:52.967Z,23.10
2019-01-18T19:55:44.807Z,17.40
2019-01-18T19:58:39.392Z,18.17
2019-01-18T20:01:28.042Z,17.87
2019-01-18T20:04:37.988Z,25.03
2019-01-18T20:07:29.522Z,24.40
2019-01-18T20:10:38.971Z,17.60
2019-01-18T20:13:42.705Z,17.63
2019-01-18T20:16:43.494Z,21.77
2019-01-18T20:19:31.966Z,16.13
2019-01-18T20:22:32.622Z,21.63
2019-01-18T20:25:21.490Z,23.23
2019-01-18T20:28:25.592Z,22.47
2019-01-18T20:31:26.275Z,20.47
2019-01-18T20:34:18.477Z,17.47
2019-01-18T20:37:07.438Z,17.43
2019-01-18T20:40:05.092Z,16.37
2019-01-18T20:42:53.936Z,17.20
2019-01-18T20:46:10.743Z,16.53
2019-01-18T20:49:14.744Z,17.50
2019-01-18T20:52:27.173Z,16.60
2019-01-18T20:55:18.282Z,15.00
2019-01-18T20:58:15.906Z,18.47
2019-01-18T21:01:34.711Z,19.40
2019-01-18T21:04:32.896Z,14.93
2019-01-18T21:07:35.116Z,14.27
2019-01-18T21:10:32.885Z,16.53
2019-01-18T21:13:24.387Z,16.77
2019-01-18T21:16:19.073Z,24.33
2019-01-18T21:19:19.823Z,26.20
2019-01-18T21:22:31.201Z,26.60
2019-01-18T21:25:36.442Z,23.07
2019-01-18T21:28:43.284Z,17.20
2019-01-18T21:31:40.466Z,14.67
2019-01-18T21:34:37.666Z,16.03
2019-01-18T21:37:26.336Z,16.13
2019-01-18T21:40:36.187Z,12.60
2019-01-18T21:43:24.636Z,15.73
2019-01-18T21:46:33.092Z,14.57
2019-01-18T21:49:24.878Z,15.10
2019-01-18T21:52:33.260Z,14.87
2019-01-18T21:55:33.454Z,14.93
2019-01-18T21:58:24.711Z,17.73
2019-01-18T22:01:25.328Z,19.87
2019-01-18T22:04:13.831Z,16.40
2019-01-18T22:07:13.951Z,16.07
2019-01-18T22:10:14.771Z,12.33
2019-01-18T22:13:18.556Z,19.43
2019-01-18T22:16:19.274Z,15.70
2019-01-18T22:19:07.879Z,13.03
2019-01-18T22:22:05.397Z,15.73
2019-01-18T22:25:17.018Z,18.23
2019-01-18T22:28:20.810Z,16.03
2019-01-18T22:31:25.871Z,15.37
2019-01-18T22:34:14.529Z,13.53
2019-01-18T22:37:25.712Z,13.40
2019-01-18T22:40:40.067Z,12.43
2019-01-18T22:44:01.865Z,13.63
2019-01-18T22:46:50.568Z,11.17
2019-01-18T22:49:47.953Z,9.40
2019-01-18T22:52:36.825Z,11.57
2019-01-18T22:55:31.482Z,8.43
2019-01-18T22:58:22.938Z,10.77
2019-01-18T23:01:32.971Z,8.63
2019-01-18T23:04:27.412Z,10.57
2019-01-18T23:07:19.135Z,10.77
2019-01-18T23:10:27.128Z,8.23
2019-01-18T23:13:24.590Z,8.60
2019-01-18T23:16:35.606Z,8.43
2019-01-18T23:19:27.312Z,10.33
2019-01-18T23:22:18.827Z,9.63
2019-01-18T23:25:16.450Z,10.43
2019-01-18T23:28:07.957Z,10.67
2019-01-18T23:30:59.636Z,8.80
2019-01-18T23:33:48.291Z,9.10
2019-01-18T23:36:40.016Z,8.77
2019-01-18T23:39:31.556Z,11.03
2019-01-18T23:42:31.791Z,9.37
2019-01-18T23:45:47.470Z,7.60
2019-01-18T23:48:38.844Z,8.33
2019-01-18T23:51:30.407Z,11.03
2019-01-18T23:54:34.330Z,9.37
2019-01-18T23:57:22.967Z,8.87
